Time;durP1;ratioP1;P1;durP2;ratioP2;P2;SDS_P1;SDS_P2;PMS_P1;PMS_P2;Temp;Humidity;BMP_temperature;BMP_pressure;BME280_temperature;BME280_humidity;BME280_pressure;Samples;Min_cycle;Max_cycle;Signal;HPM_P1;HPM_P2
2022/01/21 00:02:06;;;;;;;1.27;0.90;;;5.80;99.90;;;;;;5105927;28;20949;-78
2022/01/21 00:04:35;;;;;;;4.73;1.37;;;5.80;99.90;;;;;;5109863;28;20453;-78
2022/01/21 00:07:05;;;;;;;3.50;1.00;;;5.90;99.90;;;;;;5099532;28;20453;-80
2022/01/21 00:09:33;;;;;;;2.33;1.20;;;5.80;99.90;;;;;;5103132;28;20460;-79
2022/01/21 00:12:02;;;;;;;1.17;1.00;;;5.80;99.90;;;;;;5107413;28;20454;-79
2022/01/21 00:14:30;;;;;;;1.38;0.98;;;5.80;99.90;;;;;;5099561;28;20205;-78
2022/01/21 00:16:58;;;;;;;1.40;1.00;;;5.70;99.90;;;;;;5103799;28;20881;-82
2022/01/21 00:19:28;;;;;;;3.50;1.02;;;5.70;99.90;;;;;;5107716;28;20499;-79
2022/01/21 00:30:17;;;;;;;2.63;1.13;;;5.60;99.90;;;;;;5103397;28;20716;-78
2022/01/21 00:32:47;;;;;;;1.58;1.00;;;5.60;99.90;;;;;;5105637;28;20200;-80
2022/01/21 00:35:17;;;;;;;3.38;1.00;;;5.60;99.90;;;;;;5102836;28;20227;-78
2022/01/21 00:37:46;;;;;;;3.05;1.00;;;5.60;99.90;;;;;;5101207;28;20794;-79
2022/01/21 00:40:20;;;;;;;1.95;1.15;;;5.60;99.90;;;;;;5108943;28;20219;-79
2022/01/21 00:42:55;;;;;;;1.70;1.02;;;5.60;99.90;;;;;;5105508;28;20259;-79
2022/01/21 00:45:25;;;;;;;5.65;1.63;;;5.70;99.90;;;;;;5110345;28;20642;-79
2022/01/21 00:47:53;;;;;;;2.83;1.20;;;5.70;99.90;;;;;;5107611;27;20195;-79
2022/01/21 00:50:21;;;;;;;4.53;1.10;;;5.70;99.90;;;;;;5105833;28;20202;-78
2022/01/21 00:52:49;;;;;;;0.95;0.95;;;5.70;99.90;;;;;;5100988;28;20214;-77
2022/01/21 00:55:19;;;;;;;2.33;1.13;;;5.70;99.90;;;;;;5103911;28;20234;-79
2022/01/21 00:57:47;;;;;;;3.05;1.20;;;5.60;99.90;;;;;;5100709;28;20571;-81
2022/01/21 01:00:16;;;;;;;6.03;1.20;;;5.50;99.90;;;;;;5097301;28;20204;-79
2022/01/21 01:02:44;;;;;;;1.23;0.85;;;5.50;99.90;;;;;;5106125;28;20199;-78
2022/01/21 01:05:13;;;;;;;2.05;0.80;;;5.50;99.90;;;;;;5108529;28;20219;-79
2022/01/21 01:07:41;;;;;;;1.85;1.05;;;5.50;99.90;;;;;;5104793;28;20191;-77
2022/01/21 01:10:17;;;;;;;3.35;1.00;;;5.60;99.90;;;;;;5109169;28;20210;-77
2022/01/21 01:19:51;;;;;;;1.30;1.20;;;5.60;99.90;;;;;;5105625;28;20188;-78
2022/01/21 01:23:49;;;;;;;3.72;1.05;;;5.50;99.90;;;;;;5064654;28;20221;-76
2022/01/21 01:29:05;;;;;;;4.63;0.93;;;5.50;99.90;;;;;;5098175;28;20230;-77
2022/01/21 01:31:34;;;;;;;3.22;1.05;;;5.60;99.90;;;;;;5102656;28;20211;-77
2022/01/21 01:34:03;;;;;;;2.28;1.05;;;5.60;99.90;;;;;;5105577;28;20207;-79
2022/01/21 01:36:32;;;;;;;1.50;1.02;;;5.70;99.90;;;;;;5106557;28;20703;-76
2022/01/21 01:39:10;;;;;;;1.33;1.23;;;5.70;99.90;;;;;;5092142;28;20195;-78
2022/01/21 01:41:42;;;;;;;3.13;1.20;;;5.70;99.90;;;;;;5098860;28;20209;-79
2022/01/21 01:49:52;;;;;;;1.95;1.02;;;5.60;99.90;;;;;;5107531;28;20203;-78
2022/01/21 01:52:21;;;;;;;3.20;0.90;;;5.70;99.90;;;;;;5103030;28;20203;-77
2022/01/21 01:54:51;;;;;;;1.13;1.00;;;5.60;99.90;;;;;;5105596;28;20300;-79
2022/01/21 01:57:20;;;;;;;1.88;1.10;;;5.70;99.90;;;;;;5103535;28;20203;-80
2022/01/21 01:59:50;;;;;;;2.45;0.90;;;5.70;99.90;;;;;;5104221;28;20215;-77
2022/01/21 02:02:19;;;;;;;2.65;0.95;;;5.70;99.90;;;;;;5100203;28;20253;-79
2022/01/21 02:04:49;;;;;;;2.67;0.80;;;5.60;99.90;;;;;;5104188;28;20645;-79
2022/01/21 02:07:17;;;;;;;1.23;0.80;;;5.60;99.90;;;;;;5104187;28;20495;-77
2022/01/21 02:09:45;;;;;;;2.57;1.17;;;5.50;99.90;;;;;;5101064;28;20819;-77
2022/01/21 02:12:14;;;;;;;1.00;0.90;;;5.50;99.90;;;;;;5102512;28;20459;-80
2022/01/21 02:14:48;;;;;;;3.60;1.10;;;5.60;99.90;;;;;;5109259;28;20587;-81
2022/01/21 02:21:29;;;;;;;2.60;1.08;;;5.60;99.90;;;;;;5112028;28;20198;-78
2022/01/21 02:23:00;;;;;;;1.70;1.20;;;5.60;99.90;;;;;;5098413;28;20224;-78
2022/01/21 02:25:29;;;;;;;3.08;0.90;;;5.60;99.90;;;;;;5110444;28;20214;-79
2022/01/21 02:27:58;;;;;;;2.67;1.15;;;5.60;99.90;;;;;;5106918;28;20203;-79
2022/01/21 02:30:27;;;;;;;1.30;1.10;;;5.50;99.90;;;;;;5109650;28;20190;-79
2022/01/21 02:32:57;;;;;;;3.63;1.45;;;5.50;99.90;;;;;;5110706;28;20210;-79
2022/01/21 02:35:26;;;;;;;3.13;1.20;;;5.50;99.90;;;;;;5105941;28;20287;-79
2022/01/21 02:37:55;;;;;;;4.78;1.33;;;5.50;99.90;;;;;;5110886;28;20195;-77
2022/01/21 02:40:24;;;;;;;3.72;0.82;;;5.50;99.90;;;;;;5105543;28;20218;-81
2022/01/21 02:42:53;;;;;;;1.83;1.10;;;5.60;99.90;;;;;;5105301;28;20212;-83
2022/01/21 02:45:21;;;;;;;2.40;1.20;;;5.60;99.90;;;;;;5106944;27;21240;-80
2022/01/21 02:47:49;;;;;;;2.00;1.25;;;5.50;99.90;;;;;;5108608;28;20546;-81
2022/01/21 02:50:18;;;;;;;5.68;1.00;;;5.50;99.90;;;;;;5106654;28;20867;-79
2022/01/21 02:52:56;;;;;;;4.03;1.10;;;5.50;99.90;;;;;;5103069;28;20201;-79
2022/01/21 02:55:27;;;;;;;2.03;1.00;;;5.50;99.90;;;;;;5107761;28;20226;-77
2022/01/21 02:57:55;;;;;;;2.38;0.90;;;5.50;99.90;;;;;;5111069;28;20530;-77
2022/01/21 03:00:23;;;;;;;2.05;0.80;;;5.40;99.90;;;;;;5108089;28;20217;-79
2022/01/21 03:02:51;;;;;;;8.85;1.05;;;5.40;99.90;;;;;;5106070;28;20231;-78
2022/01/21 03:05:20;;;;;;;3.65;1.00;;;5.40;99.90;;;;;;5099395;28;20254;-78
2022/01/21 03:07:50;;;;;;;3.60;1.08;;;5.40;99.90;;;;;;5109243;28;20662;-80
2022/01/21 03:10:18;;;;;;;3.45;1.00;;;5.40;99.90;;;;;;5104858;28;20211;-79
2022/01/21 03:12:48;;;;;;;5.28;1.10;;;5.30;99.90;;;;;;5110254;28;20184;-78
2022/01/21 03:15:16;;;;;;;1.00;0.90;;;5.40;99.90;;;;;;5108213;28;20234;-79
2022/01/21 03:17:44;;;;;;;2.67;1.13;;;5.40;99.90;;;;;;5107116;28;20195;-79
2022/01/21 03:20:13;;;;;;;2.90;1.38;;;5.40;99.90;;;;;;5099056;28;20690;-81
2022/01/21 03:22:41;;;;;;;5.97;1.55;;;5.40;99.90;;;;;;5110067;28;20286;-79
2022/01/21 03:25:10;;;;;;;3.28;1.10;;;5.40;99.90;;;;;;5105126;28;20223;-78
2022/01/21 03:27:39;;;;;;;1.55;1.20;;;5.60;99.90;;;;;;5107837;28;20611;-78
2022/01/21 03:30:11;;;;;;;2.65;0.80;;;5.40;99.90;;;;;;5105241;28;20286;-80
2022/01/21 03:32:40;;;;;;;1.63;0.90;;;5.40;99.90;;;;;;5107484;28;20190;-78
2022/01/21 03:35:09;;;;;;;3.75;1.10;;;5.40;99.90;;;;;;5106111;28;20235;-79
2022/01/21 03:37:37;;;;;;;1.50;0.93;;;5.40;99.90;;;;;;5108763;28;20191;-79
2022/01/21 03:40:06;;;;;;;1.10;1.00;;;5.40;99.90;;;;;;5099139;28;20206;-77
2022/01/21 03:42:35;;;;;;;2.45;1.20;;;5.50;99.90;;;;;;5104700;28;20195;-78
2022/01/21 03:45:04;;;;;;;3.30;1.08;;;5.50;99.90;;;;;;5105332;28;20215;-79
2022/01/21 03:47:34;;;;;;;1.63;1.08;;;5.40;99.90;;;;;;5098711;28;20195;-78
2022/01/21 03:50:19;;;;;;;3.20;1.02;;;5.40;99.90;;;;;;5106029;28;20284;-78
2022/01/21 03:52:47;;;;;;;2.28;1.17;;;5.40;99.90;;;;;;5109629;28;20240;-81
2022/01/21 03:55:16;;;;;;;2.42;1.38;;;5.40;99.90;;;;;;5109482;28;20230;-78
2022/01/21 03:57:44;;;;;;;2.70;1.48;;;5.40;99.90;;;;;;5101133;28;20511;-78
2022/01/21 04:00:17;;;;;;;3.22;1.17;;;5.40;99.90;;;;;;5108327;27;20202;-80
2022/01/21 04:02:46;;;;;;;1.65;1.00;;;5.40;99.90;;;;;;5104395;27;20202;-78
2022/01/21 04:05:15;;;;;;;6.93;1.40;;;5.40;99.90;;;;;;5108701;28;20304;-78
2022/01/21 04:07:43;;;;;;;1.58;1.23;;;5.40;99.90;;;;;;5100428;28;20670;-78
2022/01/21 04:10:12;;;;;;;4.55;1.45;;;5.40;99.90;;;;;;5106692;28;20199;-80
2022/01/21 04:12:40;;;;;;;7.85;1.48;;;5.40;99.90;;;;;;5107606;28;20221;-78
2022/01/21 04:15:09;;;;;;;1.60;1.10;;;5.40;99.90;;;;;;5096782;28;20217;-78
2022/01/21 04:17:37;;;;;;;3.05;1.00;;;5.40;99.90;;;;;;5109493;28;20793;-78
2022/01/21 04:20:09;;;;;;;2.13;1.13;;;5.40;99.90;;;;;;5105981;28;20187;-80
2022/01/21 04:22:38;;;;;;;8.88;1.50;;;5.40;99.90;;;;;;5111538;28;20222;-79
2022/01/21 04:25:07;;;;;;;7.65;1.10;;;5.40;99.90;;;;;;5103958;28;20215;-78
2022/01/21 04:27:36;;;;;;;2.58;1.30;;;5.40;99.90;;;;;;5126609;27;20194;-82
2022/01/21 04:30:06;;;;;;;4.32;1.33;;;5.40;99.90;;;;;;5103183;28;20191;-81
2022/01/21 04:32:34;;;;;;;2.75;1.20;;;5.40;99.90;;;;;;5110011;28;20193;-78
2022/01/21 04:35:02;;;;;;;2.80;1.40;;;5.40;99.90;;;;;;5108053;28;20316;-78
2022/01/21 04:37:32;;;;;;;3.13;1.30;;;5.40;99.90;;;;;;5095436;28;20195;-78
2022/01/21 04:40:06;;;;;;;2.08;1.17;;;5.30;99.90;;;;;;5106527;28;20753;-81
2022/01/21 04:48:08;;;;;;;1.40;1.10;;;5.40;99.90;;;;;;5109006;27;20477;-79
2022/01/21 04:50:42;;;;;;;2.40;1.48;;;5.40;99.90;;;;;;5104015;27;20195;-78
2022/01/21 04:53:11;;;;;;;3.03;1.23;;;5.40;99.90;;;;;;5105761;28;20191;-78
2022/01/21 04:55:39;;;;;;;3.83;1.55;;;5.60;99.90;;;;;;5108962;28;20226;-79
2022/01/21 04:58:08;;;;;;;2.35;1.17;;;5.30;99.90;;;;;;5108386;28;20205;-81
2022/01/21 05:00:36;;;;;;;1.85;1.13;;;5.30;99.90;;;;;;5104850;28;20196;-78
2022/01/21 05:03:04;;;;;;;2.40;1.10;;;5.40;99.90;;;;;;5106192;27;20209;-77
2022/01/21 05:05:33;;;;;;;2.08;1.20;;;5.40;99.90;;;;;;5101225;28;20248;-79
2022/01/21 05:08:05;;;;;;;7.93;1.33;;;5.40;99.90;;;;;;5107098;27;20889;-80
2022/01/21 05:10:37;;;;;;;2.95;1.20;;;5.40;99.90;;;;;;5105290;28;20256;-79
2022/01/21 05:13:06;;;;;;;4.07;1.48;;;5.30;99.90;;;;;;5109774;28;20209;-77
2022/01/21 05:15:57;;;;;;;2.72;1.23;;;5.30;99.90;;;;;;5096500;28;20234;-78
2022/01/21 05:18:26;;;;;;;3.65;1.42;;;5.30;99.90;;;;;;5105615;28;20404;-78
2022/01/21 05:20:56;;;;;;;1.13;1.13;;;5.30;99.90;;;;;;5107593;28;20221;-79
2022/01/21 05:23:25;;;;;;;4.10;1.60;;;5.30;99.90;;;;;;5104612;28;20191;-80
2022/01/21 05:25:55;;;;;;;1.13;1.00;;;5.30;99.90;;;;;;5104262;28;20252;-78
2022/01/21 05:28:24;;;;;;;3.92;1.48;;;5.30;99.90;;;;;;5103765;27;20278;-79
2022/01/21 05:30:52;;;;;;;2.25;1.48;;;5.30;99.90;;;;;;5114422;27;20289;-78
2022/01/21 05:33:21;;;;;;;2.70;1.20;;;5.40;99.90;;;;;;5107312;28;20571;-79
2022/01/21 05:35:49;;;;;;;1.55;1.08;;;5.40;99.90;;;;;;5108088;28;20220;-79
2022/01/21 05:38:17;;;;;;;3.05;1.70;;;5.30;99.90;;;;;;5104864;28;20197;-81
2022/01/21 05:40:46;;;;;;;1.67;1.10;;;5.30;99.90;;;;;;5098450;28;20193;-78
2022/01/21 05:43:16;;;;;;;2.88;1.40;;;5.30;99.90;;;;;;5105268;28;20220;-78
2022/01/21 05:48:30;;;;;;;3.97;1.60;;;5.30;99.90;;;;;;5112044;27;20670;-78
2022/01/21 05:50:59;;;;;;;7.82;2.28;;;5.30;99.90;;;;;;5120582;27;20216;-79
2022/01/21 05:53:27;;;;;;;9.48;2.08;;;5.30;99.90;;;;;;5113378;27;20202;-78
2022/01/21 05:56:00;;;;;;;2.35;1.23;;;5.30;99.90;;;;;;5125896;27;20223;-77
2022/01/21 05:58:30;;;;;;;2.15;1.35;;;5.50;99.90;;;;;;5110522;27;20211;-81
2022/01/21 06:00:59;;;;;;;2.47;1.40;;;5.30;99.90;;;;;;5111468;27;20651;-79
2022/01/21 06:03:27;;;;;;;1.63;1.50;;;5.30;99.90;;;;;;5102410;27;20306;-78
2022/01/21 06:05:55;;;;;;;4.97;1.65;;;5.30;99.90;;;;;;5106309;28;20221;-78
2022/01/21 06:08:24;;;;;;;1.98;1.40;;;5.30;99.90;;;;;;5107828;27;20206;-78
2022/01/21 06:10:52;;;;;;;2.75;1.13;;;5.40;99.90;;;;;;5111820;27;20198;-78
2022/01/21 06:13:20;;;;;;;3.60;1.65;;;5.30;99.90;;;;;;5110779;28;20223;-78
2022/01/21 06:15:50;;;;;;;4.53;1.52;;;5.30;99.90;;;;;;5105112;27;20229;-79
2022/01/21 06:18:18;;;;;;;3.10;1.42;;;5.30;99.90;;;;;;5106277;28;20719;-77
2022/01/21 06:20:47;;;;;;;3.33;2.00;;;5.30;99.90;;;;;;5111438;27;20834;-78
2022/01/21 06:23:15;;;;;;;2.72;1.60;;;5.30;99.90;;;;;;5118502;27;20219;-81
2022/01/21 06:25:44;;;;;;;2.25;1.50;;;5.30;99.90;;;;;;5108044;27;20445;-78
2022/01/21 06:28:12;;;;;;;1.52;1.23;;;5.30;99.90;;;;;;5100887;28;20195;-79
2022/01/21 06:30:40;;;;;;;3.10;1.40;;;5.30;99.90;;;;;;5108482;28;20197;-78
2022/01/21 06:33:10;;;;;;;2.97;1.23;;;5.20;99.90;;;;;;5122287;27;20202;-78
2022/01/21 06:35:38;;;;;;;4.60;1.83;;;5.30;99.90;;;;;;5103973;27;20222;-78
2022/01/21 06:38:07;;;;;;;2.15;1.52;;;5.30;99.90;;;;;;5112044;28;20256;-77
2022/01/21 06:40:35;;;;;;;3.60;1.58;;;5.30;99.90;;;;;;5109697;27;20198;-77
2022/01/21 06:43:07;;;;;;;2.97;1.40;;;5.30;99.90;;;;;;5104605;28;20221;-77
2022/01/21 06:45:35;;;;;;;3.78;1.70;;;5.30;99.90;;;;;;5107725;28;20217;-78
2022/01/21 06:48:04;;;;;;;1.80;1.25;;;5.30;99.90;;;;;;5115586;27;20685;-79
2022/01/21 06:50:35;;;;;;;4.22;2.10;;;5.20;99.90;;;;;;5108947;27;20663;-79
2022/01/21 06:53:04;;;;;;;4.15;1.80;;;5.30;99.90;;;;;;5106360;27;20656;-78
2022/01/21 06:55:32;;;;;;;4.20;1.90;;;5.30;99.90;;;;;;5104581;28;20394;-81
2022/01/21 06:58:01;;;;;;;7.22;2.22;;;5.30;99.90;;;;;;5105434;28;20203;-80
2022/01/21 07:00:29;;;;;;;5.05;1.67;;;5.30;99.90;;;;;;5102004;28;20215;-78
2022/01/21 07:02:58;;;;;;;3.28;1.30;;;5.40;99.90;;;;;;5094736;28;20214;-79
2022/01/21 07:05:29;;;;;;;2.85;1.30;;;5.30;99.90;;;;;;5106544;28;20215;-78
2022/01/21 07:08:00;;;;;;;3.78;1.35;;;5.30;99.90;;;;;;5120408;27;20204;-79
2022/01/21 07:10:30;;;;;;;2.95;1.52;;;5.30;99.90;;;;;;5115259;27;20248;-78
2022/01/21 07:13:04;;;;;;;2.05;1.58;;;5.30;99.90;;;;;;5108779;27;20199;-78
2022/01/21 07:15:32;;;;;;;2.17;1.30;;;5.30;99.90;;;;;;5098135;27;20219;-78
2022/01/21 07:18:00;;;;;;;5.00;1.60;;;5.20;99.90;;;;;;5097762;27;20194;-79
2022/01/21 07:20:29;;;;;;;6.90;1.98;;;5.20;99.90;;;;;;5098562;28;20188;-79
2022/01/21 07:22:58;;;;;;;7.43;1.60;;;5.20;99.90;;;;;;5101751;27;20221;-78
2022/01/21 07:25:27;;;;;;;3.67;1.75;;;5.20;99.90;;;;;;5104868;27;20210;-79
2022/01/21 07:27:55;;;;;;;3.00;1.75;;;5.20;99.90;;;;;;5106568;27;20662;-79
2022/01/21 07:30:23;;;;;;;3.92;2.50;;;5.20;99.90;;;;;;5104155;27;20701;-79
2022/01/21 07:32:52;;;;;;;3.40;1.83;;;5.20;99.90;;;;;;5109914;28;20569;-79
2022/01/21 07:35:20;;;;;;;5.95;2.10;;;5.20;99.90;;;;;;5106099;27;20219;-79
2022/01/21 07:38:10;;;;;;;2.92;1.38;;;5.20;99.90;;;;;;5099093;27;20658;-80
2022/01/21 07:40:38;;;;;;;2.45;1.67;;;5.30;99.90;;;;;;5099613;28;20200;-82
2022/01/21 07:43:08;;;;;;;6.22;2.05;;;5.30;99.90;;;;;;5104487;28;20209;-81
2022/01/21 07:45:37;;;;;;;2.95;1.92;;;5.30;99.90;;;;;;5104436;27;20225;-80
2022/01/21 07:48:06;;;;;;;5.90;1.75;;;5.30;99.90;;;;;;5101188;27;20214;-78
2022/01/21 07:50:36;;;;;;;3.17;1.65;;;5.30;99.90;;;;;;5103134;28;20254;-79
2022/01/21 07:53:05;;;;;;;3.03;2.00;;;5.30;99.90;;;;;;5106640;27;20190;-79
2022/01/21 07:55:35;;;;;;;9.05;2.35;;;5.30;99.90;;;;;;5101246;28;20222;-79
2022/01/21 07:58:04;;;;;;;4.38;2.00;;;5.30;99.90;;;;;;5115400;27;20217;-81
2022/01/21 08:00:33;;;;;;;3.47;2.67;;;5.30;99.90;;;;;;5105721;27;20191;-78
2022/01/21 08:03:02;;;;;;;1.80;1.63;;;5.30;99.90;;;;;;5105418;28;20226;-79
2022/01/21 08:05:33;;;;;;;4.88;2.13;;;5.30;99.90;;;;;;5122641;27;20220;-79
2022/01/21 08:08:02;;;;;;;5.70;2.63;;;5.30;99.90;;;;;;5105498;28;20662;-80
2022/01/21 08:10:31;;;;;;;5.45;1.27;;;5.30;99.90;;;;;;5103151;27;20198;-81
2022/01/21 08:13:02;;;;;;;3.90;1.50;;;5.30;99.90;;;;;;5111246;27;20674;-79
2022/01/21 08:15:30;;;;;;;1.48;1.35;;;5.30;99.90;;;;;;5121977;27;20717;-80
2022/01/21 08:17:58;;;;;;;9.77;2.45;;;5.30;99.90;;;;;;5111617;27;20195;-80
2022/01/21 08:20:28;;;;;;;2.90;2.42;;;5.30;99.90;;;;;;5110330;28;20207;-81
2022/01/21 08:22:56;;;;;;;2.35;1.65;;;5.30;99.90;;;;;;5126970;27;20283;-80
2022/01/21 08:25:25;;;;;;;2.47;2.13;;;5.30;99.90;;;;;;5111104;27;20217;-80
2022/01/21 08:27:53;;;;;;;3.13;2.53;;;5.30;99.90;;;;;;5109633;27;20211;-80
2022/01/21 08:30:23;;;;;;;6.15;2.00;;;5.30;99.90;;;;;;5106757;27;20202;-80
2022/01/21 08:32:52;;;;;;;2.10;1.65;;;5.30;99.90;;;;;;5100929;28;20256;-81
2022/01/21 08:35:20;;;;;;;4.00;1.60;;;5.40;99.90;;;;;;5101019;28;20219;-81
2022/01/21 08:37:52;;;;;;;3.80;1.90;;;5.40;99.90;;;;;;5100465;27;20196;-80
2022/01/21 08:40:20;;;;;;;8.15;2.15;;;5.50;99.90;;;;;;5109183;27;20217;-78
2022/01/21 08:42:49;;;;;;;7.47;2.70;;;5.50;99.90;;;;;;5101769;28;20197;-80
2022/01/21 08:45:18;;;;;;;8.18;2.65;;;5.50;99.90;;;;;;5108526;27;20301;-81
2022/01/21 08:47:48;;;;;;;3.05;1.60;;;5.50;99.90;;;;;;5106570;28;20236;-80
2022/01/21 08:50:18;;;;;;;8.60;2.22;;;5.60;99.90;;;;;;5107865;28;20285;-80
2022/01/21 08:52:47;;;;;;;4.70;2.33;;;5.60;99.90;;;;;;5098337;27;20260;-81
2022/01/21 08:55:18;;;;;;;2.50;2.30;;;5.60;99.90;;;;;;5104761;27;20226;-81
2022/01/21 08:57:48;;;;;;;5.10;1.85;;;5.60;99.90;;;;;;5096987;28;20203;-80
2022/01/21 09:00:19;;;;;;;5.13;1.73;;;5.60;99.90;;;;;;5109888;27;20201;-80
2022/01/21 09:02:51;;;;;;;1.42;1.33;;;5.60;99.90;;;;;;5101059;28;20203;-80
2022/01/21 09:05:19;;;;;;;5.72;2.10;;;5.60;99.90;;;;;;5107893;28;20241;-80
2022/01/21 09:07:48;;;;;;;1.85;1.55;;;5.70;99.90;;;;;;5111115;27;20206;-82
2022/01/21 09:10:16;;;;;;;4.80;2.03;;;5.60;99.90;;;;;;5108822;28;20209;-79
2022/01/21 09:12:44;;;;;;;2.30;2.00;;;5.80;99.90;;;;;;5107694;27;20195;-80
2022/01/21 09:15:13;;;;;;;3.08;1.98;;;5.60;99.90;;;;;;5105857;27;20226;-83
2022/01/21 09:17:41;;;;;;;5.60;2.53;;;5.60;99.90;;;;;;5105741;28;20908;-81
2022/01/21 09:20:11;;;;;;;6.65;1.92;;;5.70;99.90;;;;;;5108311;27;20206;-80
2022/01/21 09:22:39;;;;;;;4.70;1.90;;;5.70;99.90;;;;;;5097270;28;20187;-80
2022/01/21 09:25:08;;;;;;;6.03;2.30;;;5.70;99.90;;;;;;5111798;27;20226;-81
2022/01/21 09:27:37;;;;;;;5.50;2.50;;;5.60;99.90;;;;;;5107121;27;20196;-83
2022/01/21 09:30:06;;;;;;;4.13;2.05;;;5.60;99.90;;;;;;5109326;27;20209;-79
2022/01/21 09:32:35;;;;;;;1.95;1.75;;;5.50;99.90;;;;;;5104969;27;20674;-80
2022/01/21 09:35:05;;;;;;;2.08;1.63;;;5.50;99.90;;;;;;5106752;28;20226;-81
2022/01/21 09:37:34;;;;;;;5.13;2.33;;;5.60;99.90;;;;;;5105501;28;20206;-79
2022/01/21 09:40:03;;;;;;;8.20;2.30;;;5.60;99.90;;;;;;5104142;28;20471;-84
2022/01/21 09:42:34;;;;;;;6.25;1.90;;;5.60;99.90;;;;;;5098156;28;20195;-85
2022/01/21 09:45:08;;;;;;;5.47;1.80;;;5.60;99.90;;;;;;5099332;28;20226;-82
2022/01/21 09:47:46;;;;;;;4.70;2.50;;;5.60;99.90;;;;;;5102124;28;20244;-82
2022/01/21 09:50:17;;;;;;;7.85;2.38;;;5.60;99.90;;;;;;5113457;28;20201;-80
2022/01/21 09:52:48;;;;;;;4.57;1.88;;;5.70;99.90;;;;;;5120147;28;20226;-81
2022/01/21 09:55:20;;;;;;;8.48;2.33;;;5.70;99.90;;;;;;5123879;28;20223;-82
2022/01/21 09:57:49;;;;;;;6.32;2.20;;;5.70;99.90;;;;;;5103794;28;20264;-78
2022/01/21 10:00:20;;;;;;;3.58;1.75;;;5.80;99.90;;;;;;5110859;28;20195;-80
2022/01/21 10:02:50;;;;;;;10.63;1.92;;;5.80;99.90;;;;;;5109598;28;20196;-81
2022/01/21 10:05:20;;;;;;;2.35;1.50;;;5.80;99.90;;;;;;5099227;28;20691;-80
2022/01/21 10:07:51;;;;;;;5.03;2.55;;;5.90;99.90;;;;;;5100296;28;20284;-79
2022/01/21 10:10:20;;;;;;;4.60;1.77;;;5.90;99.90;;;;;;5101131;28;20206;-81
2022/01/21 10:12:51;;;;;;;9.45;1.67;;;5.90;99.90;;;;;;5118455;28;20188;-81
2022/01/21 10:15:19;;;;;;;4.35;2.15;;;6.20;99.90;;;;;;5113000;28;20218;-82
2022/01/21 10:18:04;;;;;;;11.27;2.80;;;6.00;99.90;;;;;;5098895;28;20244;-79
2022/01/21 10:20:39;;;;;;;3.95;1.95;;;6.10;99.90;;;;;;5113692;27;20188;-80
2022/01/21 10:23:10;;;;;;;2.47;1.70;;;6.10;99.90;;;;;;5103654;28;20215;-82
2022/01/21 10:25:40;;;;;;;4.73;1.60;;;6.10;99.90;;;;;;5106082;28;20472;-79
2022/01/21 10:28:15;;;;;;;3.67;2.05;;;6.10;99.90;;;;;;5120529;28;20460;-79
2022/01/21 10:30:45;;;;;;;2.70;1.40;;;6.10;99.90;;;;;;5104817;28;20257;-79
2022/01/21 10:33:23;;;;;;;5.20;1.77;;;6.10;99.90;;;;;;5113601;28;20534;-83
2022/01/21 10:36:06;;;;;;;5.43;1.67;;;6.10;99.90;;;;;;5114885;27;21184;-81
2022/01/21 10:38:42;;;;;;;2.50;1.35;;;6.10;99.90;;;;;;5109266;27;20448;-80
2022/01/21 10:41:12;;;;;;;2.97;1.27;;;6.10;99.90;;;;;;5109541;27;20229;-81
2022/01/21 10:43:41;;;;;;;4.20;1.95;;;6.20;99.90;;;;;;5109135;28;20280;-80
2022/01/21 10:46:15;;;;;;;4.38;1.50;;;6.20;99.90;;;;;;5103027;28;20229;-82
2022/01/21 10:49:01;;;;;;;2.80;1.58;;;6.30;99.90;;;;;;5105807;27;20254;-80
2022/01/21 10:51:32;;;;;;;4.33;1.50;;;6.20;99.90;;;;;;5098774;28;20492;-80
2022/01/21 10:54:14;;;;;;;2.90;1.67;;;6.20;99.90;;;;;;5110125;28;20456;-80
2022/01/21 10:57:04;;;;;;;5.88;1.65;;;6.20;99.90;;;;;;5111151;27;20689;-79
2022/01/21 10:59:47;;;;;;;4.80;1.87;;;6.20;99.90;;;;;;5105844;27;20199;-81
2022/01/21 11:02:15;;;;;;;14.10;1.48;;;6.20;99.90;;;;;;5104378;27;20493;-80
2022/01/21 11:04:45;;;;;;;1.52;1.40;;;6.20;99.90;;;;;;5101016;28;20640;-79
2022/01/21 11:07:16;;;;;;;2.17;1.73;;;6.20;99.90;;;;;;5107501;27;20236;-81
2022/01/21 11:09:46;;;;;;;2.75;1.83;;;6.20;99.90;;;;;;5104043;27;20203;-79
2022/01/21 11:12:16;;;;;;;1.43;1.33;;;6.30;99.90;;;;;;5111567;27;20203;-79
2022/01/21 11:14:56;;;;;;;2.22;1.65;;;6.40;99.90;;;;;;5112773;27;20491;-81
2022/01/21 11:17:25;;;;;;;4.07;1.90;;;6.60;99.90;;;;;;5099769;27;20282;-81
2022/01/21 11:20:04;;;;;;;6.38;1.40;;;6.30;99.90;;;;;;5105805;27;20291;-80
2022/01/21 11:22:32;;;;;;;2.50;1.27;;;6.40;99.90;;;;;;5101124;27;20206;-79
2022/01/21 11:25:02;;;;;;;4.40;1.50;;;6.50;99.90;;;;;;5099226;27;20486;-79
2022/01/21 11:27:31;;;;;;;4.00;1.63;;;6.50;99.90;;;;;;5107125;27;20249;-79
2022/01/21 11:29:59;;;;;;;3.10;1.33;;;6.60;99.90;;;;;;5108313;27;20451;-82
2022/01/21 11:32:28;;;;;;;4.40;1.50;;;6.60;99.90;;;;;;5110986;27;20445;-79
2022/01/21 11:34:56;;;;;;;5.90;1.60;;;6.80;99.90;;;;;;5110645;27;20969;-79
2022/01/21 11:37:26;;;;;;;2.70;1.55;;;6.80;99.90;;;;;;5118919;27;20459;-80
2022/01/21 11:39:55;;;;;;;5.53;1.83;;;6.80;99.90;;;;;;5116057;27;20218;-78
2022/01/21 11:42:26;;;;;;;4.22;1.38;;;6.80;99.90;;;;;;5109750;28;20461;-81
2022/01/21 11:45:04;;;;;;;2.20;1.30;;;6.80;99.90;;;;;;5105589;28;20212;-80
2022/01/21 11:48:00;;;;;;;2.75;2.03;;;6.80;99.90;;;;;;5104815;28;20461;-78
2022/01/21 11:50:31;;;;;;;2.63;1.50;;;6.80;99.90;;;;;;5103102;27;20199;-79
2022/01/21 11:53:05;;;;;;;3.13;2.07;;;6.70;99.90;;;;;;5102152;28;20570;-82
2022/01/21 11:55:36;;;;;;;7.85;2.03;;;6.70;99.90;;;;;;5107647;27;20460;-80
2022/01/21 11:58:18;;;;;;;17.93;1.47;;;6.60;99.90;;;;;;5114865;27;20206;-79
2022/01/21 12:00:48;;;;;;;1.30;1.20;;;6.60;98.70;;;;;;5098310;28;20457;-79
2022/01/21 12:03:18;;;;;;;1.20;1.10;;;6.60;99.50;;;;;;5106897;28;21028;-79
2022/01/21 12:05:47;;;;;;;6.20;1.55;;;6.60;98.80;;;;;;5109785;27;20226;-76
2022/01/21 12:08:15;;;;;;;3.25;1.10;;;6.60;98.90;;;;;;5097132;28;20195;-76
2022/01/21 12:10:45;;;;;;;1.87;1.30;;;6.70;99.40;;;;;;5110796;27;20199;-80
2022/01/21 12:13:22;;;;;;;4.40;1.50;;;6.70;99.90;;;;;;5098458;27;20476;-81
2022/01/21 12:19:17;;;;;;;1.73;1.17;;;6.70;99.90;;;;;;5103345;27;20461;-79
2022/01/21 12:21:46;;;;;;;4.67;1.70;;;6.70;99.90;;;;;;5099404;28;20553;-80
2022/01/21 12:24:16;;;;;;;1.33;1.20;;;6.70;99.90;;;;;;5104824;27;20448;-81
2022/01/21 12:26:56;;;;;;;1.90;1.30;;;6.70;99.90;;;;;;5103497;27;20510;-80
2022/01/21 12:29:28;;;;;;;2.43;1.47;;;6.70;99.90;;;;;;5095931;28;20445;-79
2022/01/21 12:32:06;;;;;;;1.13;1.07;;;6.80;99.90;;;;;;5101768;27;20800;-79
2022/01/21 12:35:15;;;;;;;1.10;1.00;;;6.80;99.90;;;;;;5099095;28;20456;-79
2022/01/21 12:41:05;;;;;;;3.72;1.20;;;6.80;97.60;;;;;;5106432;27;20213;-80
2022/01/21 12:43:43;;;;;;;3.27;1.00;;;6.80;97.60;;;;;;5102074;27;20203;-81
2022/01/21 12:46:16;;;;;;;2.43;0.80;;;6.80;97.30;;;;;;5107378;27;20967;-80
2022/01/21 12:48:46;;;;;;;2.63;1.23;;;6.80;97.90;;;;;;5108588;28;20786;-79
2022/01/21 12:51:17;;;;;;;5.67;0.97;;;6.80;97.10;;;;;;5110085;28;20456;-80
2022/01/21 12:56:53;;;;;;;2.37;1.20;;;6.80;96.80;;;;;;5046900;28;20483;-81
2022/01/21 12:59:22;;;;;;;1.90;1.00;;;6.80;96.10;;;;;;5112443;27;20449;-81
2022/01/21 13:01:53;;;;;;;3.43;1.37;;;6.80;95.90;;;;;;5115537;27;20445;-80
2022/01/21 13:04:37;;;;;;;5.22;1.17;;;6.90;99.10;;;;;;5108656;28;20448;-81
2022/01/21 13:07:09;;;;;;;2.43;1.10;;;6.80;95.60;;;;;;5108028;28;20227;-80
2022/01/21 13:10:01;;;;;;;2.73;1.33;;;6.80;96.70;;;;;;5097942;28;20453;-78
2022/01/21 13:12:47;;;;;;;2.50;1.40;;;6.80;96.40;;;;;;5107669;28;20452;-81
2022/01/21 13:15:15;;;;;;;1.33;0.80;;;6.80;95.50;;;;;;5099052;28;20995;-81
2022/01/21 13:17:45;;;;;;;3.60;1.20;;;6.80;96.00;;;;;;5121071;27;20831;-81
2022/01/21 13:20:13;;;;;;;1.77;1.10;;;6.80;96.20;;;;;;5111333;27;20470;-81
2022/01/21 13:22:42;;;;;;;1.27;0.70;;;6.70;95.50;;;;;;5112916;27;20457;-82
2022/01/21 13:25:15;;;;;;;0.80;0.73;;;6.70;95.80;;;;;;5110005;28;20472;-80
2022/01/21 13:27:46;;;;;;;1.97;1.00;;;6.70;95.30;;;;;;5105196;28;20465;-81
2022/01/21 13:30:16;;;;;;;1.10;0.90;;;6.70;95.80;;;;;;5109743;27;20461;-81
2022/01/21 13:32:47;;;;;;;3.47;1.10;;;6.70;98.00;;;;;;5106117;28;20457;-81
2022/01/21 13:35:18;;;;;;;1.63;1.30;;;6.70;98.70;;;;;;5109369;27;21179;-81
2022/01/21 13:38:02;;;;;;;6.63;1.15;;;6.70;99.90;;;;;;5108296;27;20503;-80
2022/01/21 13:40:34;;;;;;;3.77;1.50;;;6.80;99.90;;;;;;5102838;28;20199;-79
2022/01/21 13:43:12;;;;;;;5.90;1.30;;;6.80;99.90;;;;;;5105923;27;20467;-82
2022/01/21 13:45:42;;;;;;;2.20;1.20;;;6.80;99.90;;;;;;5098445;28;21031;-80
2022/01/21 13:48:12;;;;;;;2.60;0.90;;;6.80;99.90;;;;;;5109169;28;20449;-83
2022/01/21 13:50:45;;;;;;;5.97;1.20;;;6.80;99.90;;;;;;5121803;28;20522;-84
2022/01/21 13:53:14;;;;;;;4.93;1.10;;;6.80;99.90;;;;;;5115231;28;20444;-81
2022/01/21 13:55:45;;;;;;;2.10;1.38;;;6.80;99.90;;;;;;5116027;28;20484;-83
2022/01/21 13:58:17;;;;;;;1.37;0.90;;;6.80;99.90;;;;;;5114218;28;20686;-83
2022/01/21 14:00:48;;;;;;;2.22;1.13;;;6.70;99.90;;;;;;5105331;28;20956;-81
2022/01/21 14:03:22;;;;;;;1.60;1.10;;;6.80;99.90;;;;;;5105154;27;20211;-81